Time;durP1;ratioP1;P1;durP2;ratioP2;P2;SDS_P1;SDS_P2;PMS_P1;PMS_P2;Temp;Humidity;BMP_temperature;BMP_pressure;BME280_temperature;BME280_humidity;BME280_pressure;Samples;Min_cycle;Max_cycle;Signal;HPM_P1;HPM_P2
2023/08/25 00:00:56;;;;;;;97.50;59.13;;;;;;;;;;5065262;28;20036;-77
2023/08/25 00:03:22;;;;;;;100.70;61.70;;;;;;;;;;5071197;28;20043;-77
2023/08/25 00:05:52;;;;;;;102.50;60.70;;;;;;;;;;5093155;28;20046;-76
2023/08/25 00:08:18;;;;;;;93.97;62.08;;;;;;;;;;5093675;28;20059;-76
2023/08/25 00:10:44;;;;;;;105.07;62.53;;;;;;;;;;5072863;28;20052;-76
2023/08/25 00:13:10;;;;;;;111.03;66.35;;;;;;;;;;5094061;28;20131;-77
2023/08/25 00:15:36;;;;;;;110.43;66.15;;;;;;;;;;5070099;28;20044;-76
2023/08/25 00:18:02;;;;;;;110.60;68.25;;;;;;;;;;5091227;28;20064;-77
2023/08/25 00:20:29;;;;;;;118.22;70.07;;;;;;;;;;5072592;28;20157;-77
2023/08/25 00:22:55;;;;;;;127.00;72.18;;;;;;;;;;5089380;28;20387;-76
2023/08/25 00:25:21;;;;;;;128.55;71.20;;;;;;;;;;5091206;28;20479;-77
2023/08/25 00:27:47;;;;;;;128.40;76.35;;;;;;;;;;5070572;28;20094;-77
2023/08/25 00:30:14;;;;;;;135.18;74.55;;;;;;;;;;5064176;28;20044;-77
2023/08/25 00:32:40;;;;;;;121.00;73.60;;;;;;;;;;5071371;28;20079;-77
2023/08/25 00:35:06;;;;;;;141.77;81.22;;;;;;;;;;5069829;28;20044;-77
2023/08/25 00:37:32;;;;;;;138.45;78.95;;;;;;;;;;5087982;28;20039;-76
2023/08/25 00:39:58;;;;;;;146.23;83.70;;;;;;;;;;5074329;28;20052;-77
2023/08/25 00:42:24;;;;;;;146.77;84.80;;;;;;;;;;5088329;28;20051;-77
2023/08/25 00:44:50;;;;;;;147.10;84.35;;;;;;;;;;5070005;28;20635;-76
2023/08/25 00:47:17;;;;;;;116.85;71.13;;;;;;;;;;5067342;28;20044;-77
2023/08/25 00:49:43;;;;;;;150.75;88.78;;;;;;;;;;5070983;28;20178;-77
2023/08/25 00:52:10;;;;;;;139.50;83.22;;;;;;;;;;5085079;28;20044;-77
2023/08/25 00:54:36;;;;;;;145.40;85.55;;;;;;;;;;5086132;28;20039;-76
2023/08/25 00:57:03;;;;;;;149.15;87.88;;;;;;;;;;5071475;28;20048;-76
2023/08/25 00:59:30;;;;;;;141.52;83.65;;;;;;;;;;5093012;28;20048;-76
2023/08/25 01:01:56;;;;;;;151.93;84.63;;;;;;;;;;5073326;28;20079;-76
2023/08/25 01:04:23;;;;;;;141.75;84.57;;;;;;;;;;5094806;28;20122;-77
2023/08/25 01:06:49;;;;;;;130.50;78.68;;;;;;;;;;5091919;28;20044;-76
2023/08/25 01:09:16;;;;;;;142.13;85.18;;;;;;;;;;5094756;28;20105;-76
2023/08/25 01:11:48;;;;;;;151.13;87.50;;;;;;;;;;5069396;28;20068;-77
2023/08/25 01:14:35;;;;;;;145.80;87.97;;;;;;;;;;5089045;28;20106;-77
2023/08/25 01:17:11;;;;;;;157.48;87.65;;;;;;;;;;5087244;28;20472;-77
2023/08/25 01:19:43;;;;;;;154.68;91.13;;;;;;;;;;5073918;28;20114;-76
2023/08/25 01:22:13;;;;;;;151.00;87.65;;;;;;;;;;5092346;28;20105;-76
2023/08/25 01:24:41;;;;;;;149.75;87.75;;;;;;;;;;5095242;28;20044;-76
2023/08/25 01:27:07;;;;;;;156.15;90.63;;;;;;;;;;5070037;28;20391;-76
2023/08/25 01:29:33;;;;;;;131.70;83.63;;;;;;;;;;5089211;28;20036;-77
2023/08/25 01:31:59;;;;;;;142.05;84.45;;;;;;;;;;5085691;28;20085;-77
2023/08/25 01:34:25;;;;;;;130.07;76.13;;;;;;;;;;5054214;28;20506;-76
2023/08/25 01:37:03;;;;;;;115.43;73.35;;;;;;;;;;5088314;28;20036;-76
2023/08/25 01:39:30;;;;;;;111.45;73.32;;;;;;;;;;5086972;28;20051;-77
2023/08/25 01:41:58;;;;;;;102.05;67.40;;;;;;;;;;5081497;28;20036;-76
2023/08/25 01:44:25;;;;;;;115.47;71.25;;;;;;;;;;5090371;28;20082;-76
2023/08/25 01:46:52;;;;;;;97.80;65.32;;;;;;;;;;5069189;28;20040;-76
2023/08/25 01:49:20;;;;;;;101.68;66.22;;;;;;;;;;5086347;28;21237;-77
2023/08/25 01:51:46;;;;;;;89.28;60.05;;;;;;;;;;5068852;28;20047;-76
2023/08/25 01:54:15;;;;;;;80.30;59.53;;;;;;;;;;5067735;28;20044;-77
2023/08/25 01:56:41;;;;;;;83.43;58.55;;;;;;;;;;5088932;28;20410;-76
2023/08/25 01:59:07;;;;;;;85.10;59.28;;;;;;;;;;5090165;28;20514;-76
2023/08/25 02:01:33;;;;;;;74.50;54.08;;;;;;;;;;5090910;28;20036;-76
2023/08/25 02:03:59;;;;;;;76.85;54.22;;;;;;;;;;5086552;28;20040;-76
2023/08/25 02:06:25;;;;;;;74.10;52.22;;;;;;;;;;5070659;28;20051;-76
2023/08/25 02:08:55;;;;;;;74.22;52.50;;;;;;;;;;5089487;28;20048;-76
2023/08/25 02:11:21;;;;;;;80.05;55.65;;;;;;;;;;5087371;28;20123;-76
2023/08/25 02:13:47;;;;;;;73.95;52.25;;;;;;;;;;5090491;28;20170;-76
2023/08/25 02:16:13;;;;;;;68.72;49.92;;;;;;;;;;5089738;28;20098;-76
2023/08/25 02:18:39;;;;;;;74.65;53.08;;;;;;;;;;5089642;28;20066;-77
2023/08/25 02:21:05;;;;;;;66.55;47.30;;;;;;;;;;5072071;28;20048;-75
2023/08/25 02:23:31;;;;;;;68.20;50.97;;;;;;;;;;5073229;28;20059;-76
2023/08/25 02:25:57;;;;;;;64.90;49.55;;;;;;;;;;5068652;28;20040;-76
2023/08/25 02:28:23;;;;;;;72.55;53.45;;;;;;;;;;5087594;28;20028;-76
2023/08/25 02:30:49;;;;;;;69.65;52.42;;;;;;;;;;5088825;28;20403;-76
2023/08/25 02:33:15;;;;;;;71.13;50.45;;;;;;;;;;5072769;28;20050;-76
2023/08/25 02:35:41;;;;;;;69.50;52.30;;;;;;;;;;5070993;28;20479;-75
2023/08/25 02:38:08;;;;;;;66.03;52.58;;;;;;;;;;5071015;28;20050;-76
2023/08/25 02:40:35;;;;;;;78.85;53.42;;;;;;;;;;5070020;28;20048;-76
2023/08/25 02:43:05;;;;;;;79.00;55.13;;;;;;;;;;5082418;28;20040;-76
2023/08/25 02:45:34;;;;;;;72.00;52.00;;;;;;;;;;5079871;28;21037;-76
2023/08/25 02:48:01;;;;;;;66.47;51.65;;;;;;;;;;5063302;28;20045;-76
2023/08/25 02:50:27;;;;;;;74.28;55.42;;;;;;;;;;5084647;28;20040;-76
2023/08/25 02:52:53;;;;;;;72.13;52.80;;;;;;;;;;5064718;28;20047;-76
2023/08/25 02:55:21;;;;;;;72.35;55.28;;;;;;;;;;5086702;28;20092;-76
2023/08/25 02:57:47;;;;;;;67.57;52.90;;;;;;;;;;5071229;28;20112;-76
2023/08/25 03:00:15;;;;;;;65.45;48.42;;;;;;;;;;5067431;28;20497;-76
2023/08/25 03:02:41;;;;;;;65.20;50.92;;;;;;;;;;5069163;28;20101;-76
2023/08/25 03:05:08;;;;;;;68.65;51.13;;;;;;;;;;5062663;28;20055;-75
2023/08/25 03:07:34;;;;;;;61.22;52.08;;;;;;;;;;5071538;28;20087;-76
2023/08/25 03:10:00;;;;;;;72.53;52.33;;;;;;;;;;5071779;28;20044;-76
2023/08/25 03:12:29;;;;;;;72.55;52.83;;;;;;;;;;5082365;28;20495;-76
2023/08/25 03:14:55;;;;;;;72.70;54.03;;;;;;;;;;5065952;28;20411;-76
2023/08/25 03:17:22;;;;;;;66.35;52.90;;;;;;;;;;5088749;28;20056;-77
2023/08/25 03:19:48;;;;;;;65.13;50.28;;;;;;;;;;5071001;28;20053;-76
2023/08/25 03:22:14;;;;;;;61.97;49.78;;;;;;;;;;5088644;28;20505;-76
2023/08/25 03:24:40;;;;;;;64.18;48.40;;;;;;;;;;5071221;28;20032;-75
2023/08/25 03:27:06;;;;;;;65.90;50.83;;;;;;;;;;5090592;28;20480;-76
2023/08/25 03:29:32;;;;;;;62.80;50.25;;;;;;;;;;5074169;28;20043;-76
2023/08/25 03:31:59;;;;;;;60.10;50.80;;;;;;;;;;5061378;28;20047;-76
2023/08/25 03:34:25;;;;;;;57.58;47.92;;;;;;;;;;5079928;28;20084;-76
2023/08/25 03:36:51;;;;;;;65.40;49.60;;;;;;;;;;5085710;28;20122;-76
2023/08/25 03:39:17;;;;;;;61.25;47.33;;;;;;;;;;5088723;28;20078;-76
2023/08/25 03:41:43;;;;;;;58.95;46.45;;;;;;;;;;5083119;28;20036;-76
2023/08/25 03:44:09;;;;;;;51.83;43.22;;;;;;;;;;5089930;28;20049;-76
2023/08/25 03:46:36;;;;;;;45.17;39.97;;;;;;;;;;5069958;28;20051;-76
2023/08/25 03:49:02;;;;;;;42.47;37.88;;;;;;;;;;5070384;28;20575;-76
2023/08/25 03:51:28;;;;;;;42.67;33.28;;;;;;;;;;5083471;28;20051;-76
2023/08/25 03:53:54;;;;;;;42.42;34.13;;;;;;;;;;5068143;28;20372;-76
2023/08/25 03:56:21;;;;;;;32.35;28.48;;;;;;;;;;5088811;28;20097;-77
2023/08/25 03:58:47;;;;;;;32.22;27.20;;;;;;;;;;5069250;28;20059;-77
2023/08/25 04:01:13;;;;;;;35.97;30.30;;;;;;;;;;5086899;28;20072;-76
2023/08/25 04:03:39;;;;;;;38.78;31.45;;;;;;;;;;5082256;28;20053;-76
2023/08/25 04:06:06;;;;;;;35.05;28.95;;;;;;;;;;5064875;28;20101;-75
2023/08/25 04:08:32;;;;;;;33.83;30.13;;;;;;;;;;5071080;28;20063;-76
2023/08/25 04:10:58;;;;;;;32.28;28.77;;;;;;;;;;5079558;28;20475;-76
2023/08/25 04:13:24;;;;;;;34.53;29.48;;;;;;;;;;5068168;28;20129;-76
2023/08/25 04:15:55;;;;;;;36.53;29.35;;;;;;;;;;5071825;28;20501;-76
2023/08/25 04:18:21;;;;;;;32.30;28.08;;;;;;;;;;5099346;28;20040;-77
2023/08/25 04:20:48;;;;;;;37.20;31.00;;;;;;;;;;5087129;28;20036;-76
2023/08/25 04:23:14;;;;;;;37.05;29.67;;;;;;;;;;5066999;28;20147;-76
2023/08/25 04:25:40;;;;;;;40.42;30.08;;;;;;;;;;5069528;28;20044;-75
2023/08/25 04:28:06;;;;;;;35.45;25.73;;;;;;;;;;5087980;28;20051;-76
2023/08/25 04:30:32;;;;;;;33.67;26.50;;;;;;;;;;5081536;28;20043;-77
2023/08/25 04:32:58;;;;;;;31.02;26.48;;;;;;;;;;5068525;28;20048;-76
2023/08/25 04:35:24;;;;;;;26.92;22.73;;;;;;;;;;5066856;28;20131;-76
2023/08/25 04:37:50;;;;;;;18.08;15.40;;;;;;;;;;5083140;28;20040;-77
2023/08/25 04:40:17;;;;;;;19.58;15.15;;;;;;;;;;5086012;28;20044;-76
2023/08/25 04:42:44;;;;;;;17.45;14.68;;;;;;;;;;5084376;28;20087;-77
2023/08/25 04:45:10;;;;;;;17.00;13.45;;;;;;;;;;5063191;28;20040;-77
2023/08/25 04:47:40;;;;;;;15.90;12.48;;;;;;;;;;5072947;28;20044;-77
2023/08/25 04:50:07;;;;;;;17.58;12.98;;;;;;;;;;5070869;28;20062;-76
2023/08/25 04:52:34;;;;;;;13.95;12.35;;;;;;;;;;5071375;28;20400;-77
2023/08/25 04:55:00;;;;;;;15.50;10.95;;;;;;;;;;5091708;28;20115;-76
2023/08/25 04:57:26;;;;;;;15.35;10.35;;;;;;;;;;5093446;28;20048;-77
2023/08/25 04:59:52;;;;;;;19.42;11.02;;;;;;;;;;5073268;28;20044;-77
2023/08/25 05:02:18;;;;;;;15.57;11.52;;;;;;;;;;5088658;28;20048;-75
2023/08/25 05:04:44;;;;;;;16.65;11.80;;;;;;;;;;5073825;28;20044;-77
2023/08/25 05:07:10;;;;;;;16.83;12.77;;;;;;;;;;5091631;28;20083;-77
2023/08/25 05:09:37;;;;;;;19.60;13.93;;;;;;;;;;5092161;28;20364;-77
2023/08/25 05:12:03;;;;;;;16.83;13.55;;;;;;;;;;5064868;28;20045;-77
2023/08/25 05:14:29;;;;;;;20.00;14.82;;;;;;;;;;5060537;28;20048;-77
2023/08/25 05:16:55;;;;;;;17.08;14.27;;;;;;;;;;5089539;28;20075;-77
2023/08/25 05:19:21;;;;;;;16.60;13.55;;;;;;;;;;5094272;28;20372;-77
2023/08/25 05:21:47;;;;;;;17.45;13.25;;;;;;;;;;5075292;28;20458;-77
2023/08/25 05:24:18;;;;;;;14.18;11.15;;;;;;;;;;5092423;28;20047;-76
2023/08/25 05:26:44;;;;;;;16.88;11.80;;;;;;;;;;5074404;28;20040;-77
2023/08/25 05:29:10;;;;;;;15.60;11.93;;;;;;;;;;5088045;28;20461;-77
2023/08/25 05:31:36;;;;;;;15.73;11.80;;;;;;;;;;5089596;28;20475;-77
2023/08/25 05:34:02;;;;;;;14.93;10.82;;;;;;;;;;5090642;28;21746;-77
2023/08/25 05:36:28;;;;;;;13.68;12.27;;;;;;;;;;5068580;28;20040;-76
2023/08/25 05:38:57;;;;;;;17.02;12.32;;;;;;;;;;5093592;28;20060;-76
2023/08/25 05:41:23;;;;;;;17.13;14.02;;;;;;;;;;5079368;28;20036;-76
2023/08/25 05:43:49;;;;;;;22.23;17.02;;;;;;;;;;5070223;28;20122;-76
2023/08/25 05:46:15;;;;;;;21.80;17.95;;;;;;;;;;5067568;28;20040;-77
2023/08/25 05:48:41;;;;;;;21.73;18.50;;;;;;;;;;5089783;28;20052;-76
2023/08/25 05:51:07;;;;;;;21.08;18.83;;;;;;;;;;5091765;28;20035;-76
2023/08/25 05:53:33;;;;;;;22.33;19.58;;;;;;;;;;5085247;28;20056;-76
2023/08/25 05:55:59;;;;;;;25.20;20.52;;;;;;;;;;5068097;28;20109;-76
2023/08/25 05:58:25;;;;;;;26.08;21.38;;;;;;;;;;5084867;28;20380;-76
2023/08/25 06:00:51;;;;;;;27.30;20.70;;;;;;;;;;5089196;28;20555;-77
2023/08/25 06:03:18;;;;;;;26.00;20.80;;;;;;;;;;5079931;28;20046;-76
2023/08/25 06:05:46;;;;;;;29.30;22.08;;;;;;;;;;5067619;28;20048;-76
2023/08/25 06:08:13;;;;;;;25.75;21.13;;;;;;;;;;5073552;28;20060;-76
2023/08/25 06:10:39;;;;;;;25.85;20.85;;;;;;;;;;5088529;28;20126;-77
2023/08/25 06:13:05;;;;;;;27.20;20.95;;;;;;;;;;5086716;28;20079;-76
2023/08/25 06:15:31;;;;;;;25.65;21.23;;;;;;;;;;5084601;28;20047;-77
2023/08/25 06:18:00;;;;;;;30.38;20.85;;;;;;;;;;5090265;28;20127;-77
2023/08/25 06:20:26;;;;;;;28.52;21.45;;;;;;;;;;5086103;28;20048;-76
2023/08/25 06:22:53;;;;;;;28.23;22.77;;;;;;;;;;5060385;28;20046;-76
2023/08/25 06:25:19;;;;;;;34.63;23.75;;;;;;;;;;5089299;28;20085;-77
2023/08/25 06:27:45;;;;;;;31.65;23.48;;;;;;;;;;5067759;28;20384;-77
2023/08/25 06:30:11;;;;;;;31.92;24.48;;;;;;;;;;5069712;28;20373;-76
2023/08/25 06:32:37;;;;;;;33.83;26.52;;;;;;;;;;5078862;28;20040;-77
2023/08/25 06:35:03;;;;;;;37.22;26.38;;;;;;;;;;5071522;28;20139;-76
2023/08/25 06:37:29;;;;;;;38.67;27.52;;;;;;;;;;5091340;28;20047;-76
2023/08/25 06:39:55;;;;;;;33.55;26.67;;;;;;;;;;5062756;28;20048;-76
2023/08/25 06:42:22;;;;;;;41.35;26.88;;;;;;;;;;5069398;28;20388;-77
2023/08/25 06:44:48;;;;;;;39.35;26.73;;;;;;;;;;5066823;28;20472;-77
2023/08/25 06:47:14;;;;;;;44.75;28.63;;;;;;;;;;5072134;28;20075;-76
2023/08/25 06:49:40;;;;;;;39.13;27.90;;;;;;;;;;5073067;28;20059;-77
2023/08/25 06:52:06;;;;;;;40.80;27.25;;;;;;;;;;5068261;28;20097;-77
2023/08/25 06:54:33;;;;;;;42.05;28.50;;;;;;;;;;5066895;28;20036;-77
2023/08/25 06:56:59;;;;;;;42.97;27.02;;;;;;;;;;5065120;28;20042;-76
2023/08/25 06:59:25;;;;;;;40.40;24.92;;;;;;;;;;5063323;28;20074;-76
2023/08/25 07:01:51;;;;;;;38.15;26.40;;;;;;;;;;5076680;28;20044;-75
2023/08/25 07:04:17;;;;;;;34.17;22.80;;;;;;;;;;5086966;28;20048;-76
2023/08/25 07:06:46;;;;;;;33.47;24.77;;;;;;;;;;5070523;28;20052;-76
2023/08/25 07:09:13;;;;;;;33.47;22.70;;;;;;;;;;5062195;28;20055;-76
2023/08/25 07:11:39;;;;;;;31.70;23.10;;;;;;;;;;5063288;28;20052;-75
2023/08/25 07:14:05;;;;;;;33.33;21.95;;;;;;;;;;5063237;28;20098;-76
2023/08/25 07:16:32;;;;;;;34.65;23.65;;;;;;;;;;5063246;28;20036;-75
2023/08/25 07:18:58;;;;;;;34.67;22.33;;;;;;;;;;5054458;28;20071;-75
2023/08/25 07:21:24;;;;;;;34.80;23.50;;;;;;;;;;5058632;28;20448;-76
2023/08/25 07:23:50;;;;;;;33.60;21.80;;;;;;;;;;5070301;28;20476;-75
2023/08/25 07:26:16;;;;;;;35.10;23.23;;;;;;;;;;5056777;28;20180;-77
2023/08/25 07:28:42;;;;;;;38.90;23.17;;;;;;;;;;5064047;28;20040;-75
2023/08/25 07:31:08;;;;;;;30.05;22.45;;;;;;;;;;5067085;28;20511;-76
2023/08/25 07:33:37;;;;;;;36.65;22.10;;;;;;;;;;5051602;28;20060;-77
2023/08/25 07:36:04;;;;;;;33.97;23.30;;;;;;;;;;5055635;28;20044;-76
2023/08/25 07:38:30;;;;;;;35.40;22.83;;;;;;;;;;5062732;28;20507;-76
2023/08/25 07:40:56;;;;;;;33.15;23.33;;;;;;;;;;5057534;28;20044;-76
2023/08/25 07:43:22;;;;;;;37.05;23.92;;;;;;;;;;5056295;28;20086;-77
2023/08/25 07:45:48;;;;;;;33.03;24.38;;;;;;;;;;5058578;28;20045;-76
2023/08/25 07:48:15;;;;;;;32.90;22.00;;;;;;;;;;5057947;28;20052;-75
2023/08/25 07:50:41;;;;;;;34.10;22.80;;;;;;;;;;5061831;28;20044;-76
2023/08/25 07:53:07;;;;;;;33.45;22.60;;;;;;;;;;5059610;28;20040;-75
2023/08/25 07:55:39;;;;;;;30.52;21.95;;;;;;;;;;5058253;28;20077;-75
2023/08/25 07:58:05;;;;;;;30.55;20.88;;;;;;;;;;5058641;28;20059;-75
2023/08/25 08:00:32;;;;;;;30.30;20.73;;;;;;;;;;5059587;28;20056;-76
2023/08/25 08:02:58;;;;;;;36.40;20.40;;;;;;;;;;5056369;28;20044;-76
2023/08/25 08:05:26;;;;;;;30.45;20.80;;;;;;;;;;5055266;28;20052;-76
2023/08/25 08:07:52;;;;;;;28.75;19.73;;;;;;;;;;5050079;28;20179;-75
2023/08/25 08:10:19;;;;;;;27.58;20.27;;;;;;;;;;5054612;28;20044;-76
2023/08/25 08:12:45;;;;;;;34.40;21.30;;;;;;;;;;5046097;28;20452;-76
2023/08/25 08:15:12;;;;;;;31.88;21.80;;;;;;;;;;5047795;28;20135;-76
2023/08/25 08:17:39;;;;;;;31.27;22.23;;;;;;;;;;5044667;28;21738;-75
2023/08/25 08:20:07;;;;;;;33.95;21.00;;;;;;;;;;5047485;28;20045;-76
2023/08/25 08:22:33;;;;;;;37.92;29.42;;;;;;;;;;5049513;28;20126;-77
2023/08/25 08:24:59;;;;;;;32.03;21.98;;;;;;;;;;5052409;28;20040;-76
2023/08/25 08:27:25;;;;;;;32.20;21.15;;;;;;;;;;5046593;28;20724;-76
2023/08/25 08:29:51;;;;;;;32.03;21.63;;;;;;;;;;5050270;28;20322;-76
2023/08/25 08:32:18;;;;;;;32.75;21.27;;;;;;;;;;5047015;28;20492;-76
2023/08/25 08:34:44;;;;;;;33.03;19.67;;;;;;;;;;5049636;28;20080;-76
2023/08/25 08:37:10;;;;;;;31.67;20.30;;;;;;;;;;5048016;28;20045;-75
2023/08/25 08:39:39;;;;;;;27.38;19.58;;;;;;;;;;5042093;28;20048;-76
2023/08/25 08:42:09;;;;;;;31.40;20.33;;;;;;;;;;5051987;28;20456;-75
2023/08/25 08:44:36;;;;;;;30.25;20.25;;;;;;;;;;5050878;28;20131;-75
2023/08/25 08:47:03;;;;;;;26.55;19.38;;;;;;;;;;5051744;28;20086;-76
2023/08/25 08:49:29;;;;;;;33.08;20.08;;;;;;;;;;5048323;28;20042;-75
2023/08/25 08:51:57;;;;;;;27.92;18.30;;;;;;;;;;5045147;28;20045;-75
2023/08/25 08:54:27;;;;;;;23.27;18.05;;;;;;;;;;5053154;28;20053;-75
2023/08/25 08:56:53;;;;;;;25.15;18.27;;;;;;;;;;5050219;28;20059;-75
2023/08/25 08:59:20;;;;;;;25.50;17.45;;;;;;;;;;5051598;28;20045;-76
2023/08/25 09:01:47;;;;;;;25.85;17.83;;;;;;;;;;5059999;28;20048;-76
2023/08/25 09:04:13;;;;;;;24.38;18.15;;;;;;;;;;5046034;28;20096;-75
2023/08/25 09:06:40;;;;;;;29.42;19.20;;;;;;;;;;5051067;28;20565;-75
2023/08/25 09:09:08;;;;;;;28.95;18.05;;;;;;;;;;5064751;28;20060;-75
2023/08/25 09:11:38;;;;;;;28.17;18.30;;;;;;;;;;5069778;28;20898;-75
2023/08/25 09:14:04;;;;;;;27.33;18.05;;;;;;;;;;5069252;28;20053;-75
2023/08/25 09:16:33;;;;;;;25.42;18.00;;;;;;;;;;5060637;28;20093;-75
2023/08/25 09:19:03;;;;;;;24.70;17.88;;;;;;;;;;5068199;28;20055;-76
2023/08/25 09:21:29;;;;;;;27.00;17.80;;;;;;;;;;5073238;28;20078;-76
2023/08/25 09:23:56;;;;;;;26.40;18.20;;;;;;;;;;5060439;28;20569;-75
2023/08/25 09:26:22;;;;;;;23.75;17.77;;;;;;;;;;5070008;28;20036;-76
2023/08/25 09:28:51;;;;;;;29.67;18.17;;;;;;;;;;5067713;28;20049;-76
2023/08/25 09:31:21;;;;;;;22.45;16.77;;;;;;;;;;5069028;28;20052;-76
2023/08/25 09:33:48;;;;;;;21.67;14.45;;;;;;;;;;5067422;28;20044;-76
2023/08/25 09:36:14;;;;;;;25.25;15.80;;;;;;;;;;5069627;28;20048;-76
2023/08/25 09:38:44;;;;;;;28.27;15.80;;;;;;;;;;5071501;28;20572;-76
2023/08/25 09:41:11;;;;;;;20.42;13.80;;;;;;;;;;5060662;28;20048;-76
2023/08/25 09:43:39;;;;;;;20.23;14.30;;;;;;;;;;5070725;28;20123;-76
2023/08/25 09:46:09;;;;;;;17.17;12.95;;;;;;;;;;5068627;28;20052;-76
2023/08/25 09:48:35;;;;;;;17.75;12.27;;;;;;;;;;5065236;28;20044;-76
2023/08/25 09:51:03;;;;;;;16.58;12.27;;;;;;;;;;5071125;28;20040;-76
2023/08/25 09:53:33;;;;;;;16.58;12.80;;;;;;;;;;5055667;28;20056;-76
2023/08/25 09:56:05;;;;;;;16.45;12.20;;;;;;;;;;5071647;28;20107;-76
2023/08/25 09:58:31;;;;;;;14.77;11.27;;;;;;;;;;5062728;28;20049;-76
2023/08/25 10:00:58;;;;;;;15.60;11.95;;;;;;;;;;5061254;28;20593;-77
2023/08/25 10:03:24;;;;;;;15.07;10.95;;;;;;;;;;5065407;28;20056;-74
2023/08/25 10:05:50;;;;;;;15.50;10.15;;;;;;;;;;5072532;28;20093;-76
2023/08/25 10:08:17;;;;;;;12.77;9.85;;;;;;;;;;5069625;28;20049;-75
2023/08/25 10:10:44;;;;;;;12.93;8.60;;;;;;;;;;5067210;28;20052;-76
2023/08/25 10:13:17;;;;;;;10.95;8.77;;;;;;;;;;5063857;28;20496;-76
2023/08/25 10:15:43;;;;;;;10.52;8.48;;;;;;;;;;5064423;28;20052;-76
2023/08/25 10:18:10;;;;;;;12.23;9.25;;;;;;;;;;5066594;28;20094;-76
2023/08/25 10:20:37;;;;;;;15.68;9.00;;;;;;;;;;5068534;28;20045;-76
2023/08/25 10:23:08;;;;;;;15.70;8.98;;;;;;;;;;5065044;28;20044;-77
2023/08/25 10:25:36;;;;;;;11.95;9.23;;;;;;;;;;5076499;28;20049;-75
2023/08/25 10:28:04;;;;;;;14.80;9.15;;;;;;;;;;5056765;28;20049;-76
2023/08/25 10:30:30;;;;;;;15.02;9.40;;;;;;;;;;5065150;28;20044;-76
2023/08/25 10:33:00;;;;;;;13.90;9.77;;;;;;;;;;5063571;28;20186;-76
2023/08/25 10:35:43;;;;;;;15.02;9.38;;;;;;;;;;5065921;28;20076;-77
2023/08/25 10:38:18;;;;;;;14.32;8.80;;;;;;;;;;5063569;28;20044;-77
2023/08/25 10:40:49;;;;;;;14.90;9.38;;;;;;;;;;5058735;28;20123;-77
2023/08/25 10:43:15;;;;;;;13.10;8.98;;;;;;;;;;5070445;28;20408;-77
2023/08/25 10:45:42;;;;;;;13.10;9.35;;;;;;;;;;5062783;28;20052;-77
2023/08/25 10:48:10;;;;;;;11.60;9.15;;;;;;;;;;5072637;28;20080;-77
2023/08/25 10:50:40;;;;;;;13.40;9.30;;;;;;;;;;5055383;28;20052;-77
2023/08/25 10:53:26;;;;;;;13.77;9.75;;;;;;;;;;5066580;28;20158;-77
2023/08/25 10:55:52;;;;;;;12.23;9.15;;;;;;;;;;5059680;28;20056;-78
2023/08/25 10:58:18;;;;;;;9.70;7.90;;;;;;;;;;5057035;28;20057;-77
2023/08/25 11:00:45;;;;;;;11.38;8.38;;;;;;;;;;5064644;28;20177;-77
2023/08/25 11:03:12;;;;;;;14.43;7.85;;;;;;;;;;5064107;28;20048;-77
2023/08/25 11:05:38;;;;;;;10.57;7.75;;;;;;;;;;5065749;28;20396;-77
2023/08/25 11:08:05;;;;;;;13.65;8.15;;;;;;;;;;5074256;28;20059;-77
2023/08/25 11:10:36;;;;;;;14.95;8.90;;;;;;;;;;5084035;28;20113;-78
2023/08/25 11:13:06;;;;;;;12.38;9.85;;;;;;;;;;5065822;28;20040;-77
2023/08/25 11:15:35;;;;;;;15.27;10.07;;;;;;;;;;5060756;28;20036;-79
2023/08/25 11:18:02;;;;;;;17.25;10.85;;;;;;;;;;5088466;28;20055;-78
2023/08/25 11:20:29;;;;;;;12.85;9.63;;;;;;;;;;5084397;28;20048;-78
2023/08/25 11:22:59;;;;;;;13.35;9.63;;;;;;;;;;5090364;28;20089;-78
2023/08/25 11:25:25;;;;;;;15.05;9.98;;;;;;;;;;5067220;28;20052;-77
2023/08/25 11:27:56;;;;;;;12.98;10.18;;;;;;;;;;5072477;28;20135;-77
2023/08/25 11:30:22;;;;;;;12.35;10.02;;;;;;;;;;5062173;28;20051;-78
2023/08/25 11:32:48;;;;;;;18.63;10.32;;;;;;;;;;5066802;28;20044;-80
2023/08/25 11:35:15;;;;;;;16.92;10.48;;;;;;;;;;5075718;28;20139;-76
2023/08/25 11:37:41;;;;;;;12.65;9.82;;;;;;;;;;5074114;28;20170;-80
2023/08/25 11:40:12;;;;;;;11.50;8.63;;;;;;;;;;5061376;28;20072;-80
2023/08/25 11:42:40;;;;;;;12.77;9.18;;;;;;;;;;5079004;28;20047;-80
2023/08/25 11:45:13;;;;;;;11.30;8.32;;;;;;;;;;5082036;28;20044;-80
2023/08/25 11:47:39;;;;;;;;;;;;;;;;;;5066006;28;20122;-80
2023/08/25 11:50:06;;;;;;;14.95;9.70;;;;;;;;;;5081676;28;20347;-80
2023/08/25 11:52:35;;;;;;;11.13;9.02;;;;;;;;;;5089609;28;20131;-80
2023/08/25 11:55:01;;;;;;;11.52;9.35;;;;;;;;;;5067563;28;20050;-80
2023/08/25 11:57:34;;;;;;;13.32;8.55;;;;;;;;;;5076560;28;20055;-81
2023/08/25 12:00:02;;;;;;;19.77;10.55;;;;;;;;;;5094037;28;20074;-80
2023/08/25 12:02:28;;;;;;;20.55;10.25;;;;;;;;;;5074681;28;20055;-81
2023/08/25 12:04:55;;;;;;;10.93;8.45;;;;;;;;;;5088850;28;20056;-80
2023/08/25 12:07:22;;;;;;;12.13;7.85;;;;;;;;;;5075842;28;20491;-81
2023/08/25 12:09:53;;;;;;;11.50;7.70;;;;;;;;;;5093831;28;20044;-80
2023/08/25 12:12:19;;;;;;;18.63;8.32;;;;;;;;;;5072527;28;20036;-81
2023/08/25 12:14:45;;;;;;;10.30;7.28;;;;;;;;;;5076194;28;20044;-79
2023/08/25 12:17:20;;;;;;;10.25;7.38;;;;;;;;;;5087461;28;20044;-80
2023/08/25 12:19:46;;;;;;;11.68;7.65;;;;;;;;;;5094748;28;20097;-80
2023/08/25 12:22:15;;;;;;;11.43;6.88;;;;;;;;;;5073296;28;20047;-80
2023/08/25 12:24:41;;;;;;;9.50;7.25;;;;;;;;;;5093413;28;20051;-80
2023/08/25 12:27:08;;;;;;;13.45;7.72;;;;;;;;;;5076212;28;20567;-80
2023/08/25 12:29:34;;;;;;;10.82;7.43;;;;;;;;;;5067147;28;20411;-80
2023/08/25 12:32:00;;;;;;;13.63;7.30;;;;;;;;;;5094078;28;20036;-81
2023/08/25 12:34:26;;;;;;;9.35;7.82;;;;;;;;;;5086798;28;20044;-80
2023/08/25 12:36:52;;;;;;;9.63;7.97;;;;;;;;;;5090860;28;20050;-80
2023/08/25 12:39:18;;;;;;;10.82;7.72;;;;;;;;;;5107019;28;20491;-81
2023/08/25 12:41:44;;;;;;;12.70;8.10;;;;;;;;;;5087941;28;20054;-80
2023/08/25 12:44:13;;;;;;;12.70;8.40;;;;;;;;;;5073811;28;20049;-80
2023/08/25 12:46:39;;;;;;;15.82;9.20;;;;;;;;;;5090881;28;20040;-80
2023/08/25 12:49:05;;;;;;;26.50;10.90;;;;;;;;;;5077291;28;20479;-80
2023/08/25 12:51:31;;;;;;;10.55;7.95;;;;;;;;;;5075352;28;20052;-81
2023/08/25 12:53:57;;;;;;;10.65;7.45;;;;;;;;;;5074276;28;20044;-80
2023/08/25 12:56:24;;;;;;;9.80;7.55;;;;;;;;;;5091922;28;20528;-80
2023/08/25 12:58:53;;;;;;;10.77;6.97;;;;;;;;;;5060201;28;20044;-81
2023/08/25 13:01:19;;;;;;;13.48;7.53;;;;;;;;;;5091534;28;20043;-81
2023/08/25 13:03:45;;;;;;;10.60;6.90;;;;;;;;;;5069372;28;20040;-81
2023/08/25 13:06:11;;;;;;;9.20;6.93;;;;;;;;;;5092513;28;20044;-81
2023/08/25 13:08:38;;;;;;;9.70;7.80;;;;;;;;;;5102150;28;20605;-80
2023/08/25 13:11:04;;;;;;;9.73;7.22;;;;;;;;;;5058375;28;20052;-81
2023/08/25 13:13:30;;;;;;;10.45;7.47;;;;;;;;;;5075501;28;20492;-81
2023/08/25 13:15:57;;;;;;;10.15;7.07;;;;;;;;;;5080668;28;20036;-81
2023/08/25 13:18:24;;;;;;;12.68;7.43;;;;;;;;;;5070386;28;20249;-81
2023/08/25 13:20:51;;;;;;;12.23;8.50;;;;;;;;;;5065158;28;20105;-80
2023/08/25 13:23:17;;;;;;;9.20;7.28;;;;;;;;;;5069807;28;20048;-81
2023/08/25 13:25:43;;;;;;;10.13;7.97;;;;;;;;;;5069152;28;20059;-81
2023/08/25 13:28:09;;;;;;;9.88;7.07;;;;;;;;;;5074836;28;20048;-81
2023/08/25 13:30:35;;;;;;;9.77;6.38;;;;;;;;;;5066980;28;20056;-81
2023/08/25 13:33:01;;;;;;;10.40;6.75;;;;;;;;;;5072594;28;20056;-81
2023/08/25 13:35:27;;;;;;;8.50;6.40;;;;;;;;;;5068711;28;20040;-81
2023/08/25 13:37:55;;;;;;;9.48;6.13;;;;;;;;;;5090557;28;20055;-81
2023/08/25 13:40:22;;;;;;;10.52;6.70;;;;;;;;;;5089313;28;20040;-81
2023/08/25 13:42:48;;;;;;;8.93;6.53;;;;;;;;;;5066028;28;20059;-81
2023/08/25 13:45:16;;;;;;;8.30;6.25;;;;;;;;;;5087754;28;20040;-82
2023/08/25 13:47:42;;;;;;;10.20;6.22;;;;;;;;;;5064938;28;20063;-81
2023/08/25 13:50:10;;;;;;;9.85;6.95;;;;;;;;;;5072838;28;20044;-81
2023/08/25 13:52:36;;;;;;;9.68;6.15;;;;;;;;;;5068726;28;20486;-80
2023/08/25 13:55:02;;;;;;;6.88;5.63;;;;;;;;;;5070321;28;20051;-81
2023/08/25 13:57:30;;;;;;;8.25;6.40;;;;;;;;;;5086348;28;20093;-81
2023/08/25 13:59:56;;;;;;;8.20;5.70;;;;;;;;;;5092953;28;20039;-81
2023/08/25 14:02:22;;;;;;;8.95;6.20;;;;;;;;;;5070769;28;20396;-81
2023/08/25 14:04:48;;;;;;;10.73;6.10;;;;;;;;;;5079580;28;20044;-82
2023/08/25 14:07:14;;;;;;;9.00;5.65;;;;;;;;;;5086583;28;20039;-82
2023/08/25 14:09:40;;;;;;;6.30;5.28;;;;;;;;;;5066725;28;20050;-83
2023/08/25 14:12:06;;;;;;;8.43;5.35;;;;;;;;;;5072074;28;20048;-81
2023/08/25 14:14:32;;;;;;;6.32;5.72;;;;;;;;;;5089178;28;20040;-81
2023/08/25 14:17:04;;;;;;;10.77;5.78;;;;;;;;;;5094466;28;20036;-81
2023/08/25 14:19:30;;;;;;;8.18;5.40;;;;;;;;;;5087213;28;20040;-77